sensor_id;sensor_type;location;lat;lon;timestamp;P1;durP1;ratioP1;P2;durP2;ratioP2
43124;SDS011;49182;50.788;7.318;2022-12-11T00:00:21;39.38;;;17.40;;
43124;SDS011;49182;50.788;7.318;2022-12-11T00:02:48;44.22;;;17.65;;
43124;SDS011;49182;50.788;7.318;2022-12-11T00:05:14;41.95;;;17.13;;
43124;SDS011;49182;50.788;7.318;2022-12-11T00:07:41;41.08;;;17.30;;
43124;SDS011;49182;50.788;7.318;2022-12-11T00:10:08;43.42;;;17.70;;
43124;SDS011;49182;50.788;7.318;2022-12-11T00:12:35;46.50;;;19.98;;
43124;SDS011;49182;50.788;7.318;2022-12-11T00:15:03;45.25;;;19.33;;
43124;SDS011;49182;50.788;7.318;2022-12-11T00:17:30;43.58;;;17.75;;
43124;SDS011;49182;50.788;7.318;2022-12-11T00:19:57;43.38;;;18.77;;
43124;SDS011;49182;50.788;7.318;2022-12-11T00:22:23;43.72;;;19.13;;
43124;SDS011;49182;50.788;7.318;2022-12-11T00:24:50;44.88;;;19.27;;
43124;SDS011;49182;50.788;7.318;2022-12-11T00:27:17;43.78;;;17.38;;
43124;SDS011;49182;50.788;7.318;2022-12-11T00:29:43;45.50;;;20.02;;
43124;SDS011;49182;50.788;7.318;2022-12-11T00:32:11;47.60;;;19.98;;
43124;SDS011;49182;50.788;7.318;2022-12-11T00:34:38;46.63;;;18.15;;
43124;SDS011;49182;50.788;7.318;2022-12-11T00:37:05;42.50;;;18.23;;
43124;SDS011;49182;50.788;7.318;2022-12-11T00:39:32;41.05;;;18.08;;
43124;SDS011;49182;50.788;7.318;2022-12-11T00:41:58;41.05;;;17.33;;
43124;SDS011;49182;50.788;7.318;2022-12-11T00:44:25;41.75;;;17.77;;
43124;SDS011;49182;50.788;7.318;2022-12-11T00:46:52;41.58;;;17.05;;
43124;SDS011;49182;50.788;7.318;2022-12-11T00:49:20;46.20;;;18.55;;
43124;SDS011;49182;50.788;7.318;2022-12-11T00:51:47;46.88;;;18.25;;
43124;SDS011;49182;50.788;7.318;2022-12-11T00:54:13;43.90;;;18.42;;
43124;SDS011;49182;50.788;7.318;2022-12-11T00:56:40;44.42;;;18.52;;
43124;SDS011;49182;50.788;7.318;2022-12-11T00:59:06;41.80;;;18.05;;
43124;SDS011;49182;50.788;7.318;2022-12-11T01:01:33;47.70;;;19.33;;
43124;SDS011;49182;50.788;7.318;2022-12-11T01:04:00;41.88;;;17.80;;
43124;SDS011;49182;50.788;7.318;2022-12-11T01:06:28;47.00;;;19.30;;
43124;SDS011;49182;50.788;7.318;2022-12-11T01:08:55;50.50;;;19.15;;
43124;SDS011;49182;50.788;7.318;2022-12-11T01:11:22;43.38;;;18.33;;
43124;SDS011;49182;50.788;7.318;2022-12-11T01:13:48;43.05;;;18.73;;
43124;SDS011;49182;50.788;7.318;2022-12-11T01:16:15;43.40;;;18.77;;
43124;SDS011;49182;50.788;7.318;2022-12-11T01:18:42;48.58;;;17.70;;
43124;SDS011;49182;50.788;7.318;2022-12-11T01:21:10;41.45;;;16.70;;
43124;SDS011;49182;50.788;7.318;2022-12-11T01:23:39;45.03;;;17.75;;
43124;SDS011;49182;50.788;7.318;2022-12-11T01:26:06;49.88;;;19.40;;
43124;SDS011;49182;50.788;7.318;2022-12-11T01:28:34;56.03;;;21.45;;
43124;SDS011;49182;50.788;7.318;2022-12-11T01:31:01;46.97;;;18.20;;
43124;SDS011;49182;50.788;7.318;2022-12-11T01:33:32;47.50;;;19.27;;
43124;SDS011;49182;50.788;7.318;2022-12-11T01:35:59;46.45;;;19.65;;
43124;SDS011;49182;50.788;7.318;2022-12-11T01:38:25;41.55;;;18.73;;
43124;SDS011;49182;50.788;7.318;2022-12-11T01:40:53;47.80;;;19.92;;
43124;SDS011;49182;50.788;7.318;2022-12-11T01:43:20;41.67;;;18.45;;
43124;SDS011;49182;50.788;7.318;2022-12-11T01:45:46;44.63;;;18.33;;
43124;SDS011;49182;50.788;7.318;2022-12-11T01:48:14;45.30;;;18.08;;
43124;SDS011;49182;50.788;7.318;2022-12-11T01:50:44;44.70;;;18.13;;
43124;SDS011;49182;50.788;7.318;2022-12-11T01:53:15;55.55;;;20.65;;
43124;SDS011;49182;50.788;7.318;2022-12-11T01:55:45;47.47;;;18.63;;
43124;SDS011;49182;50.788;7.318;2022-12-11T01:58:14;42.63;;;18.70;;
43124;SDS011;49182;50.788;7.318;2022-12-11T02:00:43;48.22;;;19.67;;
43124;SDS011;49182;50.788;7.318;2022-12-11T02:03:10;46.58;;;18.42;;
43124;SDS011;49182;50.788;7.318;2022-12-11T02:05:36;44.83;;;18.95;;
43124;SDS011;49182;50.788;7.318;2022-12-11T02:08:03;42.75;;;18.33;;
43124;SDS011;49182;50.788;7.318;2022-12-11T02:10:36;43.17;;;19.08;;
43124;SDS011;49182;50.788;7.318;2022-12-11T02:13:15;45.20;;;18.45;;
43124;SDS011;49182;50.788;7.318;2022-12-11T02:15:47;41.58;;;18.05;;
43124;SDS011;49182;50.788;7.318;2022-12-11T02:18:19;35.15;;;14.18;;
43124;SDS011;49182;50.788;7.318;2022-12-11T02:20:56;39.83;;;18.20;;
43124;SDS011;49182;50.788;7.318;2022-12-11T02:23:32;43.10;;;18.60;;
43124;SDS011;49182;50.788;7.318;2022-12-11T02:26:18;138.85;;;56.75;;
43124;SDS011;49182;50.788;7.318;2022-12-11T02:28:57;109.85;;;45.05;;
43124;SDS011;49182;50.788;7.318;2022-12-11T02:31:26;45.00;;;19.30;;
43124;SDS011;49182;50.788;7.318;2022-12-11T02:34:00;45.45;;;20.23;;
43124;SDS011;49182;50.788;7.318;2022-12-11T02:36:32;42.03;;;18.10;;
43124;SDS011;49182;50.788;7.318;2022-12-11T02:39:01;47.42;;;19.17;;
43124;SDS011;49182;50.788;7.318;2022-12-11T02:41:30;46.00;;;20.20;;
43124;SDS011;49182;50.788;7.318;2022-12-11T02:44:00;42.10;;;18.50;;
43124;SDS011;49182;50.788;7.318;2022-12-11T02:46:29;45.40;;;19.08;;
43124;SDS011;49182;50.788;7.318;2022-12-11T02:48:59;40.78;;;17.73;;
43124;SDS011;49182;50.788;7.318;2022-12-11T02:51:30;47.40;;;19.38;;
43124;SDS011;49182;50.788;7.318;2022-12-11T02:54:00;48.85;;;19.55;;
43124;SDS011;49182;50.788;7.318;2022-12-11T02:56:28;45.42;;;19.08;;
43124;SDS011;49182;50.788;7.318;2022-12-11T02:58:59;47.70;;;19.37;;
43124;SDS011;49182;50.788;7.318;2022-12-11T03:01:32;47.42;;;20.90;;
43124;SDS011;49182;50.788;7.318;2022-12-11T03:03:59;52.70;;;21.33;;
43124;SDS011;49182;50.788;7.318;2022-12-11T03:06:26;50.38;;;21.38;;
43124;SDS011;49182;50.788;7.318;2022-12-11T03:08:57;41.85;;;19.90;;
43124;SDS011;49182;50.788;7.318;2022-12-11T03:11:23;50.42;;;20.50;;
43124;SDS011;49182;50.788;7.318;2022-12-11T03:13:50;38.72;;;17.95;;
43124;SDS011;49182;50.788;7.318;2022-12-11T03:16:21;46.67;;;18.77;;
43124;SDS011;49182;50.788;7.318;2022-12-11T03:19:00;45.35;;;18.63;;
43124;SDS011;49182;50.788;7.318;2022-12-11T03:21:36;46.13;;;18.60;;
43124;SDS011;49182;50.788;7.318;2022-12-11T03:24:08;44.13;;;19.45;;
43124;SDS011;49182;50.788;7.318;2022-12-11T03:26:38;44.03;;;18.23;;
43124;SDS011;49182;50.788;7.318;2022-12-11T03:29:09;46.08;;;18.55;;
43124;SDS011;49182;50.788;7.318;2022-12-11T03:31:44;46.42;;;18.98;;
43124;SDS011;49182;50.788;7.318;2022-12-11T03:34:18;50.47;;;21.05;;
43124;SDS011;49182;50.788;7.318;2022-12-11T03:36:48;48.25;;;18.80;;
43124;SDS011;49182;50.788;7.318;2022-12-11T03:39:18;48.72;;;21.67;;
43124;SDS011;49182;50.788;7.318;2022-12-11T03:41:50;49.15;;;20.95;;
43124;SDS011;49182;50.788;7.318;2022-12-11T03:44:18;57.00;;;23.33;;
43124;SDS011;49182;50.788;7.318;2022-12-11T03:46:48;58.17;;;24.55;;
43124;SDS011;49182;50.788;7.318;2022-12-11T03:49:16;50.55;;;20.85;;
43124;SDS011;49182;50.788;7.318;2022-12-11T03:51:46;65.05;;;27.52;;
43124;SDS011;49182;50.788;7.318;2022-12-11T03:54:15;80.85;;;32.78;;
43124;SDS011;49182;50.788;7.318;2022-12-11T03:56:43;59.78;;;25.95;;
43124;SDS011;49182;50.788;7.318;2022-12-11T03:59:10;49.58;;;22.42;;
43124;SDS011;49182;50.788;7.318;2022-12-11T04:01:37;51.53;;;22.23;;
43124;SDS011;49182;50.788;7.318;2022-12-11T04:04:06;51.22;;;22.35;;
43124;SDS011;49182;50.788;7.318;2022-12-11T04:06:33;49.45;;;20.95;;
43124;SDS011;49182;50.788;7.318;2022-12-11T04:08:59;44.35;;;20.92;;
43124;SDS011;49182;50.788;7.318;2022-12-11T04:11:26;46.08;;;19.75;;
43124;SDS011;49182;50.788;7.318;2022-12-11T04:13:52;51.97;;;20.17;;
43124;SDS011;49182;50.788;7.318;2022-12-11T04:16:19;43.83;;;18.60;;
43124;SDS011;49182;50.788;7.318;2022-12-11T04:18:46;46.90;;;20.02;;
43124;SDS011;49182;50.788;7.318;2022-12-11T04:21:14;44.28;;;18.55;;
43124;SDS011;49182;50.788;7.318;2022-12-11T04:23:41;51.72;;;19.52;;
43124;SDS011;49182;50.788;7.318;2022-12-11T04:26:08;47.10;;;19.50;;
43124;SDS011;49182;50.788;7.318;2022-12-11T04:28:36;47.08;;;20.88;;
43124;SDS011;49182;50.788;7.318;2022-12-11T04:31:03;45.72;;;19.17;;
43124;SDS011;49182;50.788;7.318;2022-12-11T04:33:30;48.40;;;18.35;;
43124;SDS011;49182;50.788;7.318;2022-12-11T04:35:57;45.28;;;18.33;;
43124;SDS011;49182;50.788;7.318;2022-12-11T04:38:25;45.25;;;17.95;;
43124;SDS011;49182;50.788;7.318;2022-12-11T04:40:56;42.10;;;19.13;;
43124;SDS011;49182;50.788;7.318;2022-12-11T04:43:23;44.90;;;18.67;;
43124;SDS011;49182;50.788;7.318;2022-12-11T04:45:50;48.13;;;19.05;;
43124;SDS011;49182;50.788;7.318;2022-12-11T04:48:16;45.17;;;18.50;;
43124;SDS011;49182;50.788;7.318;2022-12-11T04:50:43;46.38;;;18.58;;
43124;SDS011;49182;50.788;7.318;2022-12-11T04:53:10;57.35;;;21.85;;
43124;SDS011;49182;50.788;7.318;2022-12-11T04:55:39;44.75;;;18.98;;
43124;SDS011;49182;50.788;7.318;2022-12-11T04:58:05;50.53;;;20.27;;
43124;SDS011;49182;50.788;7.318;2022-12-11T05:00:32;46.08;;;19.55;;
43124;SDS011;49182;50.788;7.318;2022-12-11T05:02:58;45.47;;;18.52;;
43124;SDS011;49182;50.788;7.318;2022-12-11T05:05:25;41.25;;;18.63;;
43124;SDS011;49182;50.788;7.318;2022-12-11T05:07:52;48.35;;;19.30;;
43124;SDS011;49182;50.788;7.318;2022-12-11T05:10:18;45.72;;;20.35;;
43124;SDS011;49182;50.788;7.318;2022-12-11T05:12:46;48.35;;;18.75;;
43124;SDS011;49182;50.788;7.318;2022-12-11T05:15:13;48.28;;;19.52;;
43124;SDS011;49182;50.788;7.318;2022-12-11T05:17:40;57.20;;;20.83;;
43124;SDS011;49182;50.788;7.318;2022-12-11T05:20:06;58.25;;;20.67;;
43124;SDS011;49182;50.788;7.318;2022-12-11T05:22:34;53.47;;;20.83;;
43124;SDS011;49182;50.788;7.318;2022-12-11T05:25:00;51.83;;;20.33;;
43124;SDS011;49182;50.788;7.318;2022-12-11T05:27:27;60.53;;;24.05;;
43124;SDS011;49182;50.788;7.318;2022-12-11T05:29:55;53.97;;;20.52;;
43124;SDS011;49182;50.788;7.318;2022-12-11T05:32:25;58.92;;;24.55;;
43124;SDS011;49182;50.788;7.318;2022-12-11T05:34:51;53.28;;;20.08;;
43124;SDS011;49182;50.788;7.318;2022-12-11T05:37:18;56.60;;;21.52;;
43124;SDS011;49182;50.788;7.318;2022-12-11T05:39:45;50.30;;;20.63;;
43124;SDS011;49182;50.788;7.318;2022-12-11T05:42:11;57.47;;;20.90;;
43124;SDS011;49182;50.788;7.318;2022-12-11T05:44:38;49.80;;;19.90;;
43124;SDS011;49182;50.788;7.318;2022-12-11T05:47:06;55.88;;;21.13;;
43124;SDS011;49182;50.788;7.318;2022-12-11T05:49:32;53.53;;;21.40;;
43124;SDS011;49182;50.788;7.318;2022-12-11T05:51:59;53.25;;;20.38;;
43124;SDS011;49182;50.788;7.318;2022-12-11T05:54:25;57.67;;;23.20;;
43124;SDS011;49182;50.788;7.318;2022-12-11T05:56:52;60.40;;;21.58;;
43124;SDS011;49182;50.788;7.318;2022-12-11T05:59:18;55.33;;;21.27;;
43124;SDS011;49182;50.788;7.318;2022-12-11T06:01:45;59.60;;;21.70;;
43124;SDS011;49182;50.788;7.318;2022-12-11T06:04:13;61.80;;;22.92;;
43124;SDS011;49182;50.788;7.318;2022-12-11T06:06:40;60.83;;;21.45;;
43124;SDS011;49182;50.788;7.318;2022-12-11T06:09:07;61.38;;;21.85;;
43124;SDS011;49182;50.788;7.318;2022-12-11T06:11:37;56.65;;;20.95;;
43124;SDS011;49182;50.788;7.318;2022-12-11T06:14:04;55.50;;;21.77;;
43124;SDS011;49182;50.788;7.318;2022-12-11T06:16:31;68.22;;;23.33;;
43124;SDS011;49182;50.788;7.318;2022-12-11T06:18:58;57.65;;;22.25;;
43124;SDS011;49182;50.788;7.318;2022-12-11T06:21:27;57.10;;;20.58;;
43124;SDS011;49182;50.788;7.318;2022-12-11T06:23:55;65.82;;;23.45;;
43124;SDS011;49182;50.788;7.318;2022-12-11T06:26:23;59.55;;;23.00;;
43124;SDS011;49182;50.788;7.318;2022-12-11T06:28:51;62.88;;;24.52;;
43124;SDS011;49182;50.788;7.318;2022-12-11T06:31:18;80.88;;;28.55;;
43124;SDS011;49182;50.788;7.318;2022-12-11T06:33:45;71.03;;;23.92;;
43124;SDS011;49182;50.788;7.318;2022-12-11T06:36:13;69.53;;;24.27;;
43124;SDS011;49182;50.788;7.318;2022-12-11T06:38:43;68.35;;;24.88;;
43124;SDS011;49182;50.788;7.318;2022-12-11T06:41:11;59.65;;;21.38;;
43124;SDS011;49182;50.788;7.318;2022-12-11T06:43:38;65.57;;;22.50;;
43124;SDS011;49182;50.788;7.318;2022-12-11T06:46:06;59.92;;;22.45;;
43124;SDS011;49182;50.788;7.318;2022-12-11T06:48:35;62.97;;;23.52;;
43124;SDS011;49182;50.788;7.318;2022-12-11T06:51:04;58.92;;;23.10;;
43124;SDS011;49182;50.788;7.318;2022-12-11T06:53:32;59.58;;;23.27;;
43124;SDS011;49182;50.788;7.318;2022-12-11T06:56:02;74.22;;;28.75;;
43124;SDS011;49182;50.788;7.318;2022-12-11T06:58:29;58.92;;;23.70;;
43124;SDS011;49182;50.788;7.318;2022-12-11T07:00:55;74.80;;;30.08;;
43124;SDS011;49182;50.788;7.318;2022-12-11T07:03:22;65.65;;;22.45;;
43124;SDS011;49182;50.788;7.318;2022-12-11T07:05:48;66.10;;;21.40;;
43124;SDS011;49182;50.788;7.318;2022-12-11T07:08:15;65.00;;;21.65;;
43124;SDS011;49182;50.788;7.318;2022-12-11T07:10:42;61.97;;;21.25;;
43124;SDS011;49182;50.788;7.318;2022-12-11T07:13:10;60.90;;;20.70;;
43124;SDS011;49182;50.788;7.318;2022-12-11T07:15:36;63.50;;;22.50;;
43124;SDS011;49182;50.788;7.318;2022-12-11T07:18:05;65.72;;;22.55;;
43124;SDS011;49182;50.788;7.318;2022-12-11T07:20:34;62.28;;;22.15;;
43124;SDS011;49182;50.788;7.318;2022-12-11T07:23:00;61.28;;;20.45;;
43124;SDS011;49182;50.788;7.318;2022-12-11T07:25:27;57.97;;;21.48;;
43124;SDS011;49182;50.788;7.318;2022-12-11T07:27:53;59.45;;;21.40;;
43124;SDS011;49182;50.788;7.318;2022-12-11T07:30:22;52.65;;;19.58;;
43124;SDS011;49182;50.788;7.318;2022-12-11T07:32:48;64.57;;;21.85;;
43124;SDS011;49182;50.788;7.318;2022-12-11T07:35:15;55.97;;;20.65;;
43124;SDS011;49182;50.788;7.318;2022-12-11T07:37:42;53.47;;;20.27;;
43124;SDS011;49182;50.788;7.318;2022-12-11T07:40:09;59.88;;;20.50;;
43124;SDS011;49182;50.788;7.318;2022-12-11T07:42:36;53.60;;;19.55;;
43124;SDS011;49182;50.788;7.318;2022-12-11T07:45:11;63.83;;;19.88;;
43124;SDS011;49182;50.788;7.318;2022-12-11T07:47:39;56.63;;;22.50;;
43124;SDS011;49182;50.788;7.318;2022-12-11T07:50:06;62.10;;;20.67;;
43124;SDS011;49182;50.788;7.318;2022-12-11T07:52:33;71.47;;;23.60;;
43124;SDS011;49182;50.788;7.318;2022-12-11T07:55:01;67.63;;;28.13;;
43124;SDS011;49182;50.788;7.318;2022-12-11T07:57:28;77.55;;;28.77;;
43124;SDS011;49182;50.788;7.318;2022-12-11T07:59:55;78.20;;;29.88;;
43124;SDS011;49182;50.788;7.318;2022-12-11T08:02:21;58.40;;;21.55;;
43124;SDS011;49182;50.788;7.318;2022-12-11T08:04:50;62.72;;;21.77;;
43124;SDS011;49182;50.788;7.318;2022-12-11T08:07:16;60.15;;;19.75;;
43124;SDS011;49182;50.788;7.318;2022-12-11T08:09:43;57.58;;;20.88;;
43124;SDS011;49182;50.788;7.318;2022-12-11T08:12:10;60.13;;;20.58;;
43124;SDS011;49182;50.788;7.318;2022-12-11T08:14:37;58.03;;;20.77;;
43124;SDS011;49182;50.788;7.318;2022-12-11T08:17:04;54.88;;;19.38;;
43124;SDS011;49182;50.788;7.318;2022-12-11T08:19:31;70.72;;;24.25;;
43124;SDS011;49182;50.788;7.318;2022-12-11T08:21:59;70.15;;;27.42;;
43124;SDS011;49182;50.788;7.318;2022-12-11T08:24:26;67.82;;;26.35;;
43124;SDS011;49182;50.788;7.318;2022-12-11T08:26:53;77.10;;;27.73;;
43124;SDS011;49182;50.788;7.318;2022-12-11T08:29:19;101.05;;;38.13;;
43124;SDS011;49182;50.788;7.318;2022-12-11T08:31:46;73.07;;;27.58;;
43124;SDS011;49182;50.788;7.318;2022-12-11T08:34:12;69.53;;;26.75;;
43124;SDS011;49182;50.788;7.318;2022-12-11T08:36:39;73.15;;;27.85;;
43124;SDS011;49182;50.788;7.318;2022-12-11T08:39:09;66.43;;;24.75;;
43124;SDS011;49182;50.788;7.318;2022-12-11T08:41:36;65.75;;;22.50;;
43124;SDS011;49182;50.788;7.318;2022-12-11T08:44:02;55.35;;;20.70;;
43124;SDS011;49182;50.788;7.318;2022-12-11T08:46:31;59.35;;;21.20;;
43124;SDS011;49182;50.788;7.318;2022-12-11T08:48:58;66.35;;;20.98;;
43124;SDS011;49182;50.788;7.318;2022-12-11T08:51:26;60.85;;;20.90;;
43124;SDS011;49182;50.788;7.318;2022-12-11T08:53:54;64.10;;;20.13;;
43124;SDS011;49182;50.788;7.318;2022-12-11T08:56:23;62.13;;;22.00;;
43124;SDS011;49182;50.788;7.318;2022-12-11T08:58:51;64.22;;;22.90;;
43124;SDS011;49182;50.788;7.318;2022-12-11T09:01:19;65.30;;;20.88;;
43124;SDS011;49182;50.788;7.318;2022-12-11T09:03:49;64.82;;;22.70;;
43124;SDS011;49182;50.788;7.318;2022-12-11T09:06:17;66.90;;;23.95;;
43124;SDS011;49182;50.788;7.318;2022-12-11T09:08:45;65.90;;;20.25;;
43124;SDS011;49182;50.788;7.318;2022-12-11T09:11:19;58.47;;;19.40;;
43124;SDS011;49182;50.788;7.318;2022-12-11T09:13:48;70.85;;;22.15;;
43124;SDS011;49182;50.788;7.318;2022-12-11T09:16:16;63.47;;;21.45;;
43124;SDS011;49182;50.788;7.318;2022-12-11T09:18:45;63.20;;;23.27;;
43124;SDS011;49182;50.788;7.318;2022-12-11T09:21:14;63.65;;;21.08;;
43124;SDS011;49182;50.788;7.318;2022-12-11T09:23:42;70.18;;;21.75;;
43124;SDS011;49182;50.788;7.318;2022-12-11T09:26:09;64.05;;;20.75;;
43124;SDS011;49182;50.788;7.318;2022-12-11T09:28:38;65.47;;;20.15;;
43124;SDS011;49182;50.788;7.318;2022-12-11T09:31:13;68.78;;;22.30;;
43124;SDS011;49182;50.788;7.318;2022-12-11T09:33:41;65.90;;;21.90;;
43124;SDS011;49182;50.788;7.318;2022-12-11T09:36:08;65.95;;;22.50;;
43124;SDS011;49182;50.788;7.318;2022-12-11T09:38:36;69.57;;;22.65;;
43124;SDS011;49182;50.788;7.318;2022-12-11T09:41:08;64.75;;;22.25;;
43124;SDS011;49182;50.788;7.318;2022-12-11T09:43:48;71.78;;;22.70;;
43124;SDS011;49182;50.788;7.318;2022-12-11T09:46:26;60.53;;;20.80;;
43124;SDS011;49182;50.788;7.318;2022-12-11T09:48:59;64.28;;;21.95;;
43124;SDS011;49182;50.788;7.318;2022-12-11T09:51:30;63.45;;;20.33;;
43124;SDS011;49182;50.788;7.318;2022-12-11T09:54:02;58.38;;;20.58;;
43124;SDS011;49182;50.788;7.318;2022-12-11T09:56:31;66.70;;;20.67;;
43124;SDS011;49182;50.788;7.318;2022-12-11T09:59:01;57.83;;;20.10;;
43124;SDS011;49182;50.788;7.318;2022-12-11T10:01:36;60.10;;;19.63;;
43124;SDS011;49182;50.788;7.318;2022-12-11T10:04:14;63.60;;;20.63;;
43124;SDS011;49182;50.788;7.318;2022-12-11T10:06:54;57.05;;;19.58;;
43124;SDS011;49182;50.788;7.318;2022-12-11T10:09:29;58.90;;;20.70;;
43124;SDS011;49182;50.788;7.318;2022-12-11T10:12:08;58.03;;;20.10;;
43124;SDS011;49182;50.788;7.318;2022-12-11T10:14:46;55.40;;;19.17;;
43124;SDS011;49182;50.788;7.318;2022-12-11T10:17:26;51.97;;;18.92;;
43124;SDS011;49182;50.788;7.318;2022-12-11T10:19:56;54.80;;;19.48;;
43124;SDS011;49182;50.788;7.318;2022-12-11T10:22:26;53.50;;;18.15;;
43124;SDS011;49182;50.788;7.318;2022-12-11T10:24:57;53.65;;;17.85;;
43124;SDS011;49182;50.788;7.318;2022-12-11T10:27:41;52.75;;;18.42;;
43124;SDS011;49182;50.788;7.318;2022-12-11T10:30:12;50.50;;;17.65;;
43124;SDS011;49182;50.788;7.318;2022-12-11T10:32:44;53.38;;;17.92;;
43124;SDS011;49182;50.788;7.318;2022-12-11T10:35:22;45.75;;;16.85;;
43124;SDS011;49182;50.788;7.318;2022-12-11T10:37:55;49.00;;;17.30;;
43124;SDS011;49182;50.788;7.318;2022-12-11T10:40:27;51.58;;;17.10;;
43124;SDS011;49182;50.788;7.318;2022-12-11T10:42:55;47.10;;;18.20;;
43124;SDS011;49182;50.788;7.318;2022-12-11T10:45:22;52.67;;;17.88;;
43124;SDS011;49182;50.788;7.318;2022-12-11T10:47:51;45.20;;;16.55;;
43124;SDS011;49182;50.788;7.318;2022-12-11T10:50:27;52.35;;;19.85;;
43124;SDS011;49182;50.788;7.318;2022-12-11T10:52:54;52.63;;;21.58;;
43124;SDS011;49182;50.788;7.318;2022-12-11T10:55:21;56.85;;;23.50;;
43124;SDS011;49182;50.788;7.318;2022-12-11T10:57:54;63.88;;;28.38;;
43124;SDS011;49182;50.788;7.318;2022-12-11T11:00:31;136.57;;;73.15;;
43124;SDS011;49182;50.788;7.318;2022-12-11T11:03:02;45.65;;;17.30;;
43124;SDS011;49182;50.788;7.318;2022-12-11T11:05:30;56.28;;;20.63;;
43124;SDS011;49182;50.788;7.318;2022-12-11T11:08:02;45.85;;;16.52;;
43124;SDS011;49182;50.788;7.318;2022-12-11T11:10:36;48.38;;;17.17;;
43124;SDS011;49182;50.788;7.318;2022-12-11T11:13:02;49.10;;;16.88;;
43124;SDS011;49182;50.788;7.318;2022-12-11T11:15:29;45.90;;;16.25;;
43124;SDS011;49182;50.788;7.318;2022-12-11T11:17:57;40.55;;;16.88;;
43124;SDS011;49182;50.788;7.318;2022-12-11T11:20:35;41.13;;;15.65;;
43124;SDS011;49182;50.788;7.318;2022-12-11T11:23:10;44.92;;;17.08;;
43124;SDS011;49182;50.788;7.318;2022-12-11T11:25:39;45.72;;;17.83;;
43124;SDS011;49182;50.788;7.318;2022-12-11T11:28:17;46.08;;;15.52;;
43124;SDS011;49182;50.788;7.318;2022-12-11T11:30:53;46.55;;;16.88;;
43124;SDS011;49182;50.788;7.318;2022-12-11T11:33:26;40.78;;;15.20;;
43124;SDS011;49182;50.788;7.318;2022-12-11T11:35:55;39.53;;;15.07;;
43124;SDS011;49182;50.788;7.318;2022-12-11T11:38:24;39.15;;;13.75;;
43124;SDS011;49182;50.788;7.318;2022-12-11T11:40:54;42.67;;;15.27;;
43124;SDS011;49182;50.788;7.318;2022-12-11T11:43:34;40.63;;;14.95;;
43124;SDS011;49182;50.788;7.318;2022-12-11T11:46:07;44.17;;;15.80;;
43124;SDS011;49182;50.788;7.318;2022-12-11T11:48:42;42.17;;;15.07;;
43124;SDS011;49182;50.788;7.318;2022-12-11T11:51:18;42.80;;;15.32;;
43124;SDS011;49182;50.788;7.318;2022-12-11T11:53:50;44.38;;;16.55;;
43124;SDS011;49182;50.788;7.318;2022-12-11T11:56:20;41.33;;;16.05;;
43124;SDS011;49182;50.788;7.318;2022-12-11T11:58:51;46.35;;;17.52;;
43124;SDS011;49182;50.788;7.318;2022-12-11T12:01:22;60.20;;;18.67;;
43124;SDS011;49182;50.788;7.318;2022-12-11T12:03:49;120.72;;;37.47;;
43124;SDS011;49182;50.788;7.318;2022-12-11T12:06:22;64.55;;;21.13;;
43124;SDS011;49182;50.788;7.318;2022-12-11T12:09:02;54.65;;;21.65;;
43124;SDS011;49182;50.788;7.318;2022-12-11T12:11:41;62.10;;;21.02;;
43124;SDS011;49182;50.788;7.318;2022-12-11T12:14:16;59.42;;;20.88;;
43124;SDS011;49182;50.788;7.318;2022-12-11T12:17:11;50.88;;;19.10;;
43124;SDS011;49182;50.788;7.318;2022-12-11T12:19:49;59.83;;;21.30;;
43124;SDS011;49182;50.788;7.318;2022-12-11T12:22:30;47.70;;;17.35;;
43124;SDS011;49182;50.788;7.318;2022-12-11T12:25:09;61.10;;;22.52;;
43124;SDS011;49182;50.788;7.318;2022-12-11T12:27:48;39.60;;;15.52;;
43124;SDS011;49182;50.788;7.318;2022-12-11T12:30:21;91.20;;;30.45;;
43124;SDS011;49182;50.788;7.318;2022-12-11T12:32:59;47.70;;;17.30;;
43124;SDS011;49182;50.788;7.318;2022-12-11T12:35:39;39.20;;;15.38;;
43124;SDS011;49182;50.788;7.318;2022-12-11T12:38:20;43.67;;;15.07;;
43124;SDS011;49182;50.788;7.318;2022-12-11T12:40:57;38.63;;;14.85;;
43124;SDS011;49182;50.788;7.318;2022-12-11T12:43:42;42.03;;;16.17;;
43124;SDS011;49182;50.788;7.318;2022-12-11T12:46:28;41.20;;;16.05;;
43124;SDS011;49182;50.788;7.318;2022-12-11T12:49:03;51.28;;;18.13;;
43124;SDS011;49182;50.788;7.318;2022-12-11T12:51:35;71.00;;;26.75;;
43124;SDS011;49182;50.788;7.318;2022-12-11T12:54:03;38.33;;;16.35;;
43124;SDS011;49182;50.788;7.318;2022-12-11T12:56:37;34.42;;;13.57;;
43124;SDS011;49182;50.788;7.318;2022-12-11T12:59:06;31.65;;;12.25;;
43124;SDS011;49182;50.788;7.318;2022-12-11T13:01:45;32.17;;;12.23;;
43124;SDS011;49182;50.788;7.318;2022-12-11T13:04:22;38.95;;;13.80;;
43124;SDS011;49182;50.788;7.318;2022-12-11T13:07:21;30.92;;;13.85;;
43124;SDS011;49182;50.788;7.318;2022-12-11T13:09:56;31.15;;;14.40;;
43124;SDS011;49182;50.788;7.318;2022-12-11T13:12:42;36.47;;;11.40;;
43124;SDS011;49182;50.788;7.318;2022-12-11T13:15:27;29.05;;;11.57;;
43124;SDS011;49182;50.788;7.318;2022-12-11T13:17:57;31.88;;;10.88;;
43124;SDS011;49182;50.788;7.318;2022-12-11T13:20:24;27.85;;;11.25;;
43124;SDS011;49182;50.788;7.318;2022-12-11T13:22:54;33.22;;;11.82;;
43124;SDS011;49182;50.788;7.318;2022-12-11T13:25:46;33.10;;;12.90;;
43124;SDS011;49182;50.788;7.318;2022-12-11T13:31:23;33.97;;;14.25;;
43124;SDS011;49182;50.788;7.318;2022-12-11T13:33:56;36.08;;;13.75;;
43124;SDS011;49182;50.788;7.318;2022-12-11T13:36:29;33.22;;;13.13;;
43124;SDS011;49182;50.788;7.318;2022-12-11T13:39:00;31.67;;;12.35;;
43124;SDS011;49182;50.788;7.318;2022-12-11T13:41:31;34.13;;;11.52;;
43124;SDS011;49182;50.788;7.318;2022-12-11T13:44:01;32.15;;;12.40;;
43124;SDS011;49182;50.788;7.318;2022-12-11T13:46:31;30.73;;;12.13;;
43124;SDS011;49182;50.788;7.318;2022-12-11T13:49:01;32.97;;;12.68;;
43124;SDS011;49182;50.788;7.318;2022-12-11T13:51:30;32.78;;;13.27;;
43124;SDS011;49182;50.788;7.318;2022-12-11T13:54:01;32.10;;;13.07;;
43124;SDS011;49182;50.788;7.318;2022-12-11T13:56:53;37.17;;;12.70;;
43124;SDS011;49182;50.788;7.318;2022-12-11T13:59:25;38.08;;;14.45;;
43124;SDS011;49182;50.788;7.318;2022-12-11T14:02:14;31.17;;;12.88;;
43124;SDS011;49182;50.788;7.318;2022-12-11T14:04:46;31.23;;;12.90;;
43124;SDS011;49182;50.788;7.318;2022-12-11T14:07:19;36.90;;;14.25;;
43124;SDS011;49182;50.788;7.318;2022-12-11T14:09:51;33.15;;;13.68;;
43124;SDS011;49182;50.788;7.318;2022-12-11T14:12:23;34.85;;;13.43;;
43124;SDS011;49182;50.788;7.318;2022-12-11T14:14:50;37.88;;;13.75;;
43124;SDS011;49182;50.788;7.318;2022-12-11T14:17:22;38.13;;;13.55;;
43124;SDS011;49182;50.788;7.318;2022-12-11T14:19:51;36.37;;;14.00;;
43124;SDS011;49182;50.788;7.318;2022-12-11T14:22:19;38.65;;;15.38;;
43124;SDS011;49182;50.788;7.318;2022-12-11T14:24:48;34.45;;;14.73;;
43124;SDS011;49182;50.788;7.318;2022-12-11T14:27:16;36.63;;;14.98;;
43124;SDS011;49182;50.788;7.318;2022-12-11T14:29:45;35.60;;;14.23;;
43124;SDS011;49182;50.788;7.318;2022-12-11T14:34:44;36.10;;;13.35;;
43124;SDS011;49182;50.788;7.318;2022-12-11T14:37:15;39.42;;;15.05;;
43124;SDS011;49182;50.788;7.318;2022-12-11T14:39:46;36.58;;;14.52;;
43124;SDS011;49182;50.788;7.318;2022-12-11T14:42:19;34.22;;;14.48;;